Time;durP1;ratioP1;P1;durP2;ratioP2;P2;SDS_P1;SDS_P2;PMS_P1;PMS_P2;Temp;Humidity;BMP_temperature;BMP_pressure;BME280_temperature;BME280_humidity;BME280_pressure;Samples;Min_cycle;Max_cycle;Signal;HPM_P1;HPM_P2
2022/05/13 00:00:16;;;;;;;6.87;6.20;;;;;;;;;;5075729;28;20951;-64
2022/05/13 00:02:43;;;;;;;8.97;7.33;;;;;;;;;;5075793;28;20411;-65
2022/05/13 00:05:09;;;;;;;7.90;7.10;;;;;;;;;;5075678;28;20797;-64
2022/05/13 00:07:35;;;;;;;10.63;7.50;;;;;;;;;;5075324;28;20460;-64
2022/05/13 00:10:05;;;;;;;7.87;7.13;;;;;;;;;;5075437;28;20462;-64
2022/05/13 00:12:33;;;;;;;9.10;7.67;;;;;;;;;;5074503;28;20404;-66
2022/05/13 00:15:00;;;;;;;8.43;7.57;;;;;;;;;;5075305;28;20389;-64
2022/05/13 00:17:27;;;;;;;9.00;7.67;;;;;;;;;;5075405;28;20443;-64
2022/05/13 00:19:53;;;;;;;9.00;7.70;;;;;;;;;;5075246;28;20467;-64
2022/05/13 00:22:19;;;;;;;10.27;7.33;;;;;;;;;;5075299;28;20404;-63
2022/05/13 00:24:46;;;;;;;10.63;8.07;;;;;;;;;;5075253;28;20749;-64
2022/05/13 00:27:12;;;;;;;9.37;8.23;;;;;;;;;;5074994;28;20443;-64
2022/05/13 00:29:38;;;;;;;8.10;7.20;;;;;;;;;;5075051;28;20416;-63
2022/05/13 00:32:04;;;;;;;8.63;7.67;;;;;;;;;;5075130;28;20401;-64
2022/05/13 00:34:31;;;;;;;8.00;7.23;;;;;;;;;;5075048;28;20497;-64
2022/05/13 00:36:57;;;;;;;8.07;7.43;;;;;;;;;;5074960;28;20828;-63
2022/05/13 00:39:23;;;;;;;8.30;7.53;;;;;;;;;;5074840;28;20563;-64
2022/05/13 00:41:49;;;;;;;9.07;7.73;;;;;;;;;;5074939;28;20412;-64
2022/05/13 00:44:15;;;;;;;9.37;8.10;;;;;;;;;;5056945;28;20499;-64
2022/05/13 00:46:41;;;;;;;8.63;7.73;;;;;;;;;;5074765;28;20479;-63
2022/05/13 00:49:09;;;;;;;8.73;7.70;;;;;;;;;;5074746;28;20931;-64
2022/05/13 00:51:41;;;;;;;8.67;7.70;;;;;;;;;;5056769;28;20409;-63
2022/05/13 00:54:08;;;;;;;9.00;8.20;;;;;;;;;;5056894;28;20432;-65
2022/05/13 00:56:34;;;;;;;8.97;8.07;;;;;;;;;;5074428;28;20412;-64
2022/05/13 00:59:02;;;;;;;8.93;8.03;;;;;;;;;;5074479;28;20464;-68
2022/05/13 01:01:28;;;;;;;7.60;6.90;;;;;;;;;;5074596;28;20472;-64
2022/05/13 01:03:57;;;;;;;8.03;7.17;;;;;;;;;;5074416;28;20412;-63
2022/05/13 01:06:24;;;;;;;8.70;7.90;;;;;;;;;;5074388;28;20922;-64
2022/05/13 01:08:50;;;;;;;8.93;8.10;;;;;;;;;;5074077;28;20492;-64
2022/05/13 01:11:18;;;;;;;8.40;7.60;;;;;;;;;;5074296;28;20409;-65
2022/05/13 01:13:46;;;;;;;8.53;7.63;;;;;;;;;;5074259;28;20432;-66
2022/05/13 01:16:12;;;;;;;8.63;7.83;;;;;;;;;;5074014;28;20401;-64
2022/05/13 01:18:42;;;;;;;10.80;7.80;;;;;;;;;;5074178;28;20551;-65
2022/05/13 01:21:09;;;;;;;8.53;7.77;;;;;;;;;;5074161;28;20424;-64
2022/05/13 01:23:38;;;;;;;9.60;8.00;;;;;;;;;;5056075;28;20816;-65
2022/05/13 01:26:06;;;;;;;8.40;7.60;;;;;;;;;;5073932;28;20433;-64
2022/05/13 01:28:37;;;;;;;9.50;8.53;;;;;;;;;;5073849;28;20397;-64
2022/05/13 01:31:05;;;;;;;13.90;8.47;;;;;;;;;;5073997;28;20401;-67
2022/05/13 01:33:31;;;;;;;9.43;7.80;;;;;;;;;;5073869;28;20902;-65
2022/05/13 01:36:00;;;;;;;10.23;8.83;;;;;;;;;;5073940;28;20456;-65
2022/05/13 01:38:28;;;;;;;9.47;8.43;;;;;;;;;;5073687;28;20495;-64
2022/05/13 01:40:54;;;;;;;9.43;7.90;;;;;;;;;;5073841;28;20413;-67
2022/05/13 01:43:20;;;;;;;9.77;8.77;;;;;;;;;;5073748;28;20400;-64
2022/05/13 01:45:47;;;;;;;8.90;8.00;;;;;;;;;;5073625;28;20415;-64
2022/05/13 01:48:13;;;;;;;8.37;6.73;;;;;;;;;;5055769;28;20408;-64
2022/05/13 01:50:40;;;;;;;8.30;7.37;;;;;;;;;;5073443;28;20443;-64
2022/05/13 01:53:06;;;;;;;8.73;7.47;;;;;;;;;;5073620;28;20405;-64
2022/05/13 01:55:32;;;;;;;10.60;8.90;;;;;;;;;;5073374;28;20481;-66
2022/05/13 01:57:58;;;;;;;9.93;8.07;;;;;;;;;;5073538;28;20401;-65
2022/05/13 02:00:24;;;;;;;14.40;9.13;;;;;;;;;;5073402;28;20472;-65
2022/05/13 02:05:35;;;;;;;15.00;8.70;;;;;;;;;;5073638;28;20749;-63
2022/05/13 02:08:02;;;;;;;9.30;7.90;;;;;;;;;;5074794;28;20449;-64
2022/05/13 02:10:28;;;;;;;10.57;7.57;;;;;;;;;;5073301;28;20427;-66
2022/05/13 02:12:55;;;;;;;10.40;7.57;;;;;;;;;;5073378;28;20414;-64
2022/05/13 02:15:21;;;;;;;10.17;7.87;;;;;;;;;;5073368;28;20396;-64
2022/05/13 02:17:47;;;;;;;12.60;9.80;;;;;;;;;;5073361;28;20483;-64
2022/05/13 02:20:13;;;;;;;10.37;8.07;;;;;;;;;;5073148;28;20943;-63
2022/05/13 02:22:39;;;;;;;14.40;9.20;;;;;;;;;;5073352;28;20533;-64
2022/05/13 02:25:05;;;;;;;11.37;9.03;;;;;;;;;;5073068;28;20523;-64
2022/05/13 02:27:31;;;;;;;10.30;9.30;;;;;;;;;;5073027;28;20417;-63
2022/05/13 02:29:57;;;;;;;8.90;7.80;;;;;;;;;;5055133;28;20440;-64
2022/05/13 02:32:23;;;;;;;8.60;6.97;;;;;;;;;;5073099;28;20417;-63
2022/05/13 02:34:49;;;;;;;7.80;6.73;;;;;;;;;;5072554;28;20434;-63
2022/05/13 02:37:16;;;;;;;7.50;6.80;;;;;;;;;;5073032;28;20516;-63
2022/05/13 02:39:41;;;;;;;7.07;6.03;;;;;;;;;;5073047;28;21021;-63
2022/05/13 02:42:08;;;;;;;9.97;7.30;;;;;;;;;;5073096;28;20399;-63
2022/05/13 02:44:34;;;;;;;7.67;6.60;;;;;;;;;;5072865;28;20405;-63
2022/05/13 02:47:00;;;;;;;6.77;6.07;;;;;;;;;;5072865;28;20405;-63
2022/05/13 02:49:26;;;;;;;6.80;6.20;;;;;;;;;;5055008;28;20420;-63
2022/05/13 02:51:52;;;;;;;6.60;5.70;;;;;;;;;;5072952;28;20403;-64
2022/05/13 02:54:18;;;;;;;10.63;6.20;;;;;;;;;;5055104;28;20416;-63
2022/05/13 02:56:44;;;;;;;7.00;6.17;;;;;;;;;;5072823;28;20424;-64
2022/05/13 02:59:11;;;;;;;6.60;5.57;;;;;;;;;;5072873;28;20480;-64
2022/05/13 03:01:37;;;;;;;5.90;5.40;;;;;;;;;;5072837;28;20408;-64
2022/05/13 03:04:03;;;;;;;8.33;6.20;;;;;;;;;;5072789;28;20409;-63
2022/05/13 03:06:30;;;;;;;6.67;6.00;;;;;;;;;;5054727;28;20516;-64
2022/05/13 03:08:55;;;;;;;6.80;6.10;;;;;;;;;;5072645;28;20456;-64
2022/05/13 03:11:21;;;;;;;8.57;7.00;;;;;;;;;;5072764;28;20538;-64
2022/05/13 03:13:49;;;;;;;11.23;6.67;;;;;;;;;;5072766;28;20412;-63
2022/05/13 03:16:18;;;;;;;7.40;6.40;;;;;;;;;;5072628;28;20417;-63
2022/05/13 03:18:44;;;;;;;7.70;6.83;;;;;;;;;;5072612;28;20459;-63
2022/05/13 03:21:11;;;;;;;7.37;6.60;;;;;;;;;;5072694;28;20416;-63
2022/05/13 03:23:37;;;;;;;7.80;7.00;;;;;;;;;;5072749;28;20400;-63
2022/05/13 03:26:03;;;;;;;6.80;6.20;;;;;;;;;;5072446;28;20436;-64
2022/05/13 03:28:29;;;;;;;7.50;6.17;;;;;;;;;;5072461;28;20509;-65
2022/05/13 03:30:55;;;;;;;7.50;6.70;;;;;;;;;;5072664;28;20887;-63
2022/05/13 03:33:22;;;;;;;10.50;6.10;;;;;;;;;;5072507;28;20519;-64
2022/05/13 03:35:48;;;;;;;7.70;6.43;;;;;;;;;;5072484;28;20400;-63
2022/05/13 03:38:14;;;;;;;6.20;5.57;;;;;;;;;;5072526;28;20411;-64
2022/05/13 03:40:41;;;;;;;6.33;5.73;;;;;;;;;;5072535;28;20920;-63
2022/05/13 03:43:07;;;;;;;8.00;7.03;;;;;;;;;;5072469;28;20412;-63
2022/05/13 03:45:35;;;;;;;6.90;6.20;;;;;;;;;;5072400;28;20424;-64
2022/05/13 03:48:02;;;;;;;7.97;6.47;;;;;;;;;;5057174;28;20405;-73
2022/05/13 03:50:28;;;;;;;9.87;6.47;;;;;;;;;;5075917;28;20413;-76
2022/05/13 03:52:54;;;;;;;7.60;6.80;;;;;;;;;;5075865;28;20504;-64
2022/05/13 03:55:21;;;;;;;6.50;5.20;;;;;;;;;;5075654;28;20531;-64
2022/05/13 03:57:47;;;;;;;7.70;7.00;;;;;;;;;;5075735;28;20995;-65
2022/05/13 04:00:13;;;;;;;9.70;6.87;;;;;;;;;;5075759;28;20562;-64
2022/05/13 04:02:40;;;;;;;8.80;5.90;;;;;;;;;;5075801;28;20400;-64
2022/05/13 04:10:36;;;;;;;10.30;7.30;;;;;;;;;;5075908;28;20412;-66
2022/05/13 04:18:39;;;;;;;7.40;5.40;;;;;;;;;;5075407;28;20387;-63
2022/05/13 04:21:08;;;;;;;6.90;6.30;;;;;;;;;;5075326;28;20531;-67
2022/05/13 04:23:38;;;;;;;6.80;6.20;;;;;;;;;;5075259;28;20411;-64
2022/05/13 04:26:04;;;;;;;9.20;5.80;;;;;;;;;;5075052;28;20814;-63
2022/05/13 04:28:30;;;;;;;6.30;5.70;;;;;;;;;;5075171;28;20442;-64
2022/05/13 04:30:58;;;;;;;7.50;6.80;;;;;;;;;;5075231;28;20412;-63
2022/05/13 04:33:24;;;;;;;7.70;5.50;;;;;;;;;;5075120;28;20409;-64
2022/05/13 04:35:50;;;;;;;8.17;5.90;;;;;;;;;;5074998;28;20409;-63
2022/05/13 04:38:16;;;;;;;6.97;5.93;;;;;;;;;;5074966;28;20417;-63
2022/05/13 04:40:42;;;;;;;8.13;6.33;;;;;;;;;;5074988;28;20404;-63
2022/05/13 04:43:08;;;;;;;10.77;6.50;;;;;;;;;;5074853;28;20499;-64
2022/05/13 04:45:34;;;;;;;7.33;5.27;;;;;;;;;;5074771;28;20411;-63
2022/05/13 04:48:18;;;;;;;8.00;6.10;;;;;;;;;;5074860;28;20542;-63
2022/05/13 04:50:46;;;;;;;6.83;6.17;;;;;;;;;;5074873;28;20396;-63
2022/05/13 04:53:13;;;;;;;9.40;6.50;;;;;;;;;;5074797;28;20397;-63
2022/05/13 04:55:40;;;;;;;6.70;5.60;;;;;;;;;;5074446;28;20420;-63
2022/05/13 04:58:06;;;;;;;8.17;5.70;;;;;;;;;;5074002;28;20611;-63
2022/05/13 05:00:32;;;;;;;7.10;5.13;;;;;;;;;;5074454;28;20470;-63
2022/05/13 05:02:58;;;;;;;7.50;5.57;;;;;;;;;;5056522;28;20405;-62
2022/05/13 05:05:25;;;;;;;5.73;5.23;;;;;;;;;;5056426;28;20425;-64
2022/05/13 05:07:51;;;;;;;6.10;5.50;;;;;;;;;;5074125;28;20459;-62
2022/05/13 05:10:18;;;;;;;7.00;5.87;;;;;;;;;;5074370;28;20751;-65
2022/05/13 05:12:46;;;;;;;6.63;5.70;;;;;;;;;;5074347;28;20419;-62
2022/05/13 05:15:13;;;;;;;6.10;5.50;;;;;;;;;;5074124;28;20888;-64
2022/05/13 05:17:38;;;;;;;5.50;5.00;;;;;;;;;;5074152;28;20403;-63
2022/05/13 05:20:05;;;;;;;5.90;4.60;;;;;;;;;;5074089;28;20468;-64
2022/05/13 05:22:31;;;;;;;10.20;4.73;;;;;;;;;;5074218;28;20499;-63
2022/05/13 05:24:57;;;;;;;6.70;5.17;;;;;;;;;;5073773;28;20474;-63
2022/05/13 05:27:23;;;;;;;4.70;4.17;;;;;;;;;;5073821;28;20404;-63
2022/05/13 05:29:49;;;;;;;6.30;4.30;;;;;;;;;;5073913;28;20915;-62
2022/05/13 05:32:15;;;;;;;8.10;4.67;;;;;;;;;;5073785;28;20405;-62
2022/05/13 05:34:41;;;;;;;11.07;5.70;;;;;;;;;;5073781;28;20413;-63
2022/05/13 05:37:07;;;;;;;7.83;4.90;;;;;;;;;;5073600;28;20409;-62
2022/05/13 05:39:33;;;;;;;6.30;3.90;;;;;;;;;;5073798;28;20500;-63
2022/05/13 05:41:59;;;;;;;6.57;4.80;;;;;;;;;;5073558;28;20401;-63
2022/05/13 05:44:25;;;;;;;7.50;4.27;;;;;;;;;;5055583;28;20420;-62
2022/05/13 05:46:52;;;;;;;9.00;4.40;;;;;;;;;;5073283;28;20409;-62
2022/05/13 05:49:19;;;;;;;5.03;4.17;;;;;;;;;;5073447;28;20904;-65
2022/05/13 05:51:45;;;;;;;8.53;4.60;;;;;;;;;;5073475;28;20428;-63
2022/05/13 05:57:13;;;;;;;5.60;4.37;;;;;;;;;;5073386;28;20787;-63
2022/05/13 05:59:40;;;;;;;6.13;4.40;;;;;;;;;;5073198;28;20564;-65
2022/05/13 06:02:06;;;;;;;6.33;4.53;;;;;;;;;;5073247;28;20496;-62
2022/05/13 06:04:32;;;;;;;4.67;4.27;;;;;;;;;;5073111;28;20415;-64
2022/05/13 06:06:59;;;;;;;6.00;3.73;;;;;;;;;;5072799;28;20404;-63
2022/05/13 06:09:25;;;;;;;5.60;4.00;;;;;;;;;;5072558;28;20409;-63
2022/05/13 06:11:51;;;;;;;5.77;4.53;;;;;;;;;;5073018;28;20415;-65
2022/05/13 06:14:17;;;;;;;4.40;4.00;;;;;;;;;;5073242;28;20784;-63
2022/05/13 06:16:43;;;;;;;5.53;4.57;;;;;;;;;;5073088;28;20399;-65
2022/05/13 06:19:09;;;;;;;6.80;4.07;;;;;;;;;;5073011;28;20861;-63
2022/05/13 06:21:37;;;;;;;10.17;4.60;;;;;;;;;;5073119;28;20879;-63
2022/05/13 06:24:03;;;;;;;4.90;4.40;;;;;;;;;;5073088;28;20432;-63
2022/05/13 06:26:30;;;;;;;4.97;4.40;;;;;;;;;;5072723;28;20431;-65
2022/05/13 06:28:56;;;;;;;5.40;4.23;;;;;;;;;;5072964;28;20405;-65
2022/05/13 06:31:23;;;;;;;4.77;4.37;;;;;;;;;;5072963;28;20503;-63
2022/05/13 06:33:50;;;;;;;6.87;5.37;;;;;;;;;;5072948;28;20401;-65
2022/05/13 06:36:16;;;;;;;6.10;4.27;;;;;;;;;;5072743;28;20417;-63
2022/05/13 06:38:42;;;;;;;5.57;4.93;;;;;;;;;;5072728;28;20463;-63
2022/05/13 06:41:08;;;;;;;7.13;4.67;;;;;;;;;;5072921;28;20765;-63
2022/05/13 06:43:34;;;;;;;4.77;4.33;;;;;;;;;;5072777;28;20412;-63
2022/05/13 06:46:00;;;;;;;8.17;4.23;;;;;;;;;;5072670;28;21113;-63
2022/05/13 06:48:26;;;;;;;9.60;4.90;;;;;;;;;;5072672;28;20393;-63
2022/05/13 06:50:52;;;;;;;6.50;4.83;;;;;;;;;;5072872;28;20411;-62
2022/05/13 06:53:19;;;;;;;5.30;4.57;;;;;;;;;;5072734;28;20925;-65
2022/05/13 06:55:45;;;;;;;6.03;4.23;;;;;;;;;;5072468;28;20448;-76
2022/05/13 06:58:12;;;;;;;7.07;4.77;;;;;;;;;;5072895;28;20399;-64
2022/05/13 07:00:38;;;;;;;7.97;4.20;;;;;;;;;;5072524;28;20879;-64
2022/05/13 07:03:06;;;;;;;5.00;4.33;;;;;;;;;;5072654;28;20560;-67
2022/05/13 07:05:32;;;;;;;4.83;3.73;;;;;;;;;;5072496;28;20420;-63
2022/05/13 07:07:59;;;;;;;5.53;4.90;;;;;;;;;;5071968;28;20953;-66
2022/05/13 07:10:25;;;;;;;6.30;4.13;;;;;;;;;;5092836;28;20418;-63
2022/05/13 07:12:51;;;;;;;5.47;4.63;;;;;;;;;;5092840;28;20412;-65
2022/05/13 07:15:18;;;;;;;4.20;3.90;;;;;;;;;;5092803;28;20407;-66
2022/05/13 07:17:44;;;;;;;6.33;4.00;;;;;;;;;;5092735;28;20595;-64
2022/05/13 07:20:11;;;;;;;8.67;5.07;;;;;;;;;;5092683;28;20466;-73
2022/05/13 07:22:37;;;;;;;5.80;5.00;;;;;;;;;;5096596;28;20549;-64
2022/05/13 07:25:04;;;;;;;5.53;4.70;;;;;;;;;;5095080;28;20534;-66
2022/05/13 07:27:30;;;;;;;7.17;4.70;;;;;;;;;;5096397;28;20395;-64
2022/05/13 07:29:56;;;;;;;11.50;4.37;;;;;;;;;;5095018;28;20412;-63
2022/05/13 07:32:22;;;;;;;8.80;4.47;;;;;;;;;;5096339;28;20396;-64
2022/05/13 07:34:48;;;;;;;6.23;4.60;;;;;;;;;;5096506;28;20419;-63
2022/05/13 07:37:14;;;;;;;5.90;4.17;;;;;;;;;;5096179;28;20815;-64
2022/05/13 07:42:25;;;;;;;6.40;4.47;;;;;;;;;;5096252;28;20394;-63
2022/05/13 07:44:51;;;;;;;5.73;3.80;;;;;;;;;;5096144;28;20903;-64
2022/05/13 07:47:19;;;;;;;7.30;4.67;;;;;;;;;;5096008;28;20928;-63
2022/05/13 07:49:45;;;;;;;7.87;4.07;;;;;;;;;;5096167;28;20430;-63
2022/05/13 07:52:11;;;;;;;9.13;4.20;;;;;;;;;;5096073;28;20432;-66
2022/05/13 07:54:37;;;;;;;7.23;3.70;;;;;;;;;;5096035;28;20428;-63
2022/05/13 07:57:04;;;;;;;4.13;3.73;;;;;;;;;;5096010;28;20793;-67
2022/05/13 07:59:33;;;;;;;8.07;4.80;;;;;;;;;;5095910;28;20475;-64
2022/05/13 08:01:59;;;;;;;5.13;3.00;;;;;;;;;;5095938;28;20402;-64
2022/05/13 08:04:26;;;;;;;8.70;3.30;;;;;;;;;;5095842;28;20416;-64
2022/05/13 08:06:52;;;;;;;4.93;3.47;;;;;;;;;;5094048;28;20415;-64
2022/05/13 08:09:18;;;;;;;5.50;3.33;;;;;;;;;;5057716;28;20429;-64
2022/05/13 08:11:44;;;;;;;6.30;3.40;;;;;;;;;;5075475;28;20404;-70
2022/05/13 08:14:11;;;;;;;5.40;3.93;;;;;;;;;;5075646;28;20527;-64
2022/05/13 08:16:37;;;;;;;8.93;3.30;;;;;;;;;;5075369;28;20405;-68
2022/05/13 08:19:04;;;;;;;9.83;3.50;;;;;;;;;;5075147;28;20989;-70
2022/05/13 08:21:30;;;;;;;5.00;3.67;;;;;;;;;;5075294;28;20419;-64
2022/05/13 08:23:56;;;;;;;7.27;4.03;;;;;;;;;;5075313;28;20393;-68
2022/05/13 08:26:22;;;;;;;11.87;4.57;;;;;;;;;;5057130;28;20486;-64
2022/05/13 08:28:48;;;;;;;7.37;3.80;;;;;;;;;;5075129;28;20404;-64
2022/05/13 08:31:14;;;;;;;6.17;3.30;;;;;;;;;;5074997;28;20463;-64
2022/05/13 08:33:40;;;;;;;10.33;4.10;;;;;;;;;;5074376;28;20420;-63
2022/05/13 08:36:06;;;;;;;5.20;3.47;;;;;;;;;;5075014;28;20448;-63
2022/05/13 08:38:34;;;;;;;7.30;3.60;;;;;;;;;;5074823;28;20409;-65
2022/05/13 08:41:15;;;;;;;6.50;3.33;;;;;;;;;;5074950;28;20428;-66
2022/05/13 08:43:43;;;;;;;6.07;3.73;;;;;;;;;;5075052;28;20401;-67
2022/05/13 08:46:33;;;;;;;6.93;3.50;;;;;;;;;;5074853;28;20405;-66
2022/05/13 08:49:01;;;;;;;12.50;3.97;;;;;;;;;;5074835;28;20403;-65
2022/05/13 08:51:27;;;;;;;5.20;2.93;;;;;;;;;;5056713;28;20747;-64
2022/05/13 08:54:06;;;;;;;7.40;3.67;;;;;;;;;;5056902;28;20443;-68
2022/05/13 08:56:32;;;;;;;8.90;3.70;;;;;;;;;;5074421;28;20431;-65
2022/05/13 08:59:08;;;;;;;9.40;3.37;;;;;;;;;;5074386;28;20468;-65
2022/05/13 09:01:46;;;;;;;10.00;3.13;;;;;;;;;;5056537;28;20949;-70
2022/05/13 09:04:22;;;;;;;6.97;3.90;;;;;;;;;;5074585;28;20408;-65
2022/05/13 09:06:50;;;;;;;5.50;3.10;;;;;;;;;;5073998;28;20408;-66
2022/05/13 09:09:16;;;;;;;6.60;2.87;;;;;;;;;;5074313;28;20536;-64
2022/05/13 09:11:53;;;;;;;5.67;3.07;;;;;;;;;;5056446;28;20408;-65
2022/05/13 09:14:25;;;;;;;5.90;3.20;;;;;;;;;;5075052;28;20968;-67
2022/05/13 09:16:51;;;;;;;5.50;3.43;;;;;;;;;;5074181;28;20400;-64
2022/05/13 09:19:37;;;;;;;6.43;3.20;;;;;;;;;;5074181;28;20468;-67
2022/05/13 09:22:05;;;;;;;6.57;3.50;;;;;;;;;;5073705;28;20424;-64
2022/05/13 09:24:31;;;;;;;5.20;3.20;;;;;;;;;;5073996;28;20412;-66
2022/05/13 09:26:57;;;;;;;5.00;2.90;;;;;;;;;;5056010;28;20512;-65
2022/05/13 09:29:23;;;;;;;9.03;3.10;;;;;;;;;;5073754;28;20417;-63
2022/05/13 09:31:55;;;;;;;7.23;3.50;;;;;;;;;;5055980;28;20428;-65
2022/05/13 09:34:28;;;;;;;9.30;3.17;;;;;;;;;;5073804;28;20409;-65
2022/05/13 09:37:05;;;;;;;6.33;3.20;;;;;;;;;;5073835;28;20502;-64
2022/05/13 09:39:53;;;;;;;6.63;4.00;;;;;;;;;;5073655;28;20562;-68
2022/05/13 09:42:19;;;;;;;7.93;3.50;;;;;;;;;;5073745;28;21086;-64
2022/05/13 09:44:46;;;;;;;4.47;2.80;;;;;;;;;;5073609;28;20412;-64
2022/05/13 09:47:24;;;;;;;3.80;2.50;;;;;;;;;;5073450;28;20516;-64
2022/05/13 09:49:50;;;;;;;4.10;3.00;;;;;;;;;;5073550;28;20434;-65
2022/05/13 09:52:17;;;;;;;6.67;3.33;;;;;;;;;;5073603;28;20508;-69
2022/05/13 09:54:46;;;;;;;4.13;3.07;;;;;;;;;;5073438;28;20404;-64
2022/05/13 09:57:12;;;;;;;5.73;3.10;;;;;;;;;;5073592;28;20880;-64
2022/05/13 09:59:40;;;;;;;9.10;2.77;;;;;;;;;;5073435;28;20464;-64
2022/05/13 10:02:24;;;;;;;8.00;3.50;;;;;;;;;;5073333;28;20741;-64
2022/05/13 10:04:52;;;;;;;7.20;2.83;;;;;;;;;;5073210;28;20449;-66
2022/05/13 10:07:18;;;;;;;7.37;3.77;;;;;;;;;;5073174;28;20447;-64
2022/05/13 10:15:25;;;;;;;4.07;2.77;;;;;;;;;;5073452;28;20484;-64
2022/05/13 10:17:53;;;;;;;9.10;3.37;;;;;;;;;;5073206;28;20473;-74
2022/05/13 10:20:31;;;;;;;4.47;2.80;;;;;;;;;;5073002;28;20464;-70
2022/05/13 10:23:05;;;;;;;4.20;2.73;;;;;;;;;;5055209;28;20408;-75
2022/05/13 10:25:33;;;;;;;3.87;2.63;;;;;;;;;;5073075;28;20446;-76
2022/05/13 10:28:03;;;;;;;4.40;3.13;;;;;;;;;;5072821;28;20817;-69
2022/05/13 10:30:47;;;;;;;4.23;2.80;;;;;;;;;;5073013;28;20401;-70
2022/05/13 10:33:25;;;;;;;4.10;2.90;;;;;;;;;;5073003;28;20400;-74
2022/05/13 10:35:58;;;;;;;6.27;2.93;;;;;;;;;;5072926;28;20408;-65
2022/05/13 10:38:32;;;;;;;3.77;2.87;;;;;;;;;;5072877;28;20408;-64
2022/05/13 10:41:28;;;;;;;5.27;3.23;;;;;;;;;;5072972;28;20432;-64
2022/05/13 10:43:59;;;;;;;5.93;3.43;;;;;;;;;;5055626;28;20421;-64
2022/05/13 10:46:44;;;;;;;4.93;3.53;;;;;;;;;;5072842;28;20407;-66
2022/05/13 10:49:11;;;;;;;6.37;3.80;;;;;;;;;;5072963;28;20408;-65
2022/05/13 10:51:40;;;;;;;7.53;4.93;;;;;;;;;;5072672;28;20421;-64
2022/05/13 10:54:12;;;;;;;5.47;3.80;;;;;;;;;;5072886;28;20986;-65
2022/05/13 10:56:45;;;;;;;4.50;3.60;;;;;;;;;;5075040;28;20963;-65
2022/05/13 10:59:14;;;;;;;6.50;4.27;;;;;;;;;;5076849;28;20448;-66
2022/05/13 11:01:46;;;;;;;5.73;3.97;;;;;;;;;;5076682;28;20818;-65
2022/05/13 11:04:31;;;;;;;5.53;4.60;;;;;;;;;;5070368;28;20409;-63
2022/05/13 11:07:09;;;;;;;4.73;3.20;;;;;;;;;;5076262;28;20415;-64
2022/05/13 11:09:35;;;;;;;8.10;4.10;;;;;;;;;;5076619;28;20428;-63
2022/05/13 11:12:26;;;;;;;6.77;4.27;;;;;;;;;;5076043;28;20460;-64
2022/05/13 11:15:07;;;;;;;5.17;3.83;;;;;;;;;;5028813;28;20938;-64
2022/05/13 11:17:38;;;;;;;6.80;4.10;;;;;;;;;;5054942;28;20412;-64
2022/05/13 11:20:08;;;;;;;7.23;4.20;;;;;;;;;;5056393;28;20461;-63
2022/05/13 11:22:34;;;;;;;6.03;3.60;;;;;;;;;;5056421;28;20408;-64
2022/05/13 11:28:04;;;;;;;7.07;4.10;;;;;;;;;;5056153;28;20463;-64
2022/05/13 11:30:52;;;;;;;9.43;4.80;;;;;;;;;;5038074;28;20420;-70
2022/05/13 11:33:18;;;;;;;4.33;3.70;;;;;;;;;;5035983;28;20416;-63
2022/05/13 11:35:49;;;;;;;7.43;4.37;;;;;;;;;;5053965;28;20409;-64
2022/05/13 11:38:26;;;;;;;5.20;4.20;;;;;;;;;;5061382;28;20432;-67
2022/05/13 11:41:10;;;;;;;6.83;4.40;;;;;;;;;;5063588;28;20551;-65
2022/05/13 11:43:47;;;;;;;4.40;4.00;;;;;;;;;;5071518;28;20404;-66
2022/05/13 11:46:22;;;;;;;6.47;4.00;;;;;;;;;;5066113;28;20405;-66
2022/05/13 11:48:53;;;;;;;10.40;4.13;;;;;;;;;;5055443;28;20768;-68
2022/05/13 11:51:20;;;;;;;9.17;4.20;;;;;;;;;;5075740;28;20850;-70
2022/05/13 11:53:46;;;;;;;6.03;4.23;;;;;;;;;;5075859;28;20405;-67
2022/05/13 11:56:29;;;;;;;7.70;4.00;;;;;;;;;;5075647;28;20521;-68
2022/05/13 11:59:03;;;;;;;4.07;3.70;;;;;;;;;;5075161;28;20459;-69
2022/05/13 12:01:37;;;;;;;8.30;3.90;;;;;;;;;;5075108;28;20514;-68
2022/05/13 12:04:12;;;;;;;8.03;3.80;;;;;;;;;;5058308;28;20482;-68
2022/05/13 12:06:51;;;;;;;4.87;3.40;;;;;;;;;;5053992;28;20462;-68
2022/05/13 12:09:22;;;;;;;5.50;3.77;;;;;;;;;;5052980;28;20433;-67
2022/05/13 12:11:59;;;;;;;3.87;3.20;;;;;;;;;;5054219;28;20440;-67
2022/05/13 12:14:33;;;;;;;10.50;4.50;;;;;;;;;;5053588;28;20467;-67
2022/05/13 12:17:31;;;;;;;6.07;4.07;;;;;;;;;;5054361;28;20929;-66
2022/05/13 12:20:11;;;;;;;5.67;4.00;;;;;;;;;;5010435;28;20480;-65
2022/05/13 12:22:56;;;;;;;4.37;3.97;;;;;;;;;;5054803;28;20752;-66
2022/05/13 12:25:27;;;;;;;4.93;4.20;;;;;;;;;;5053767;28;20938;-66
2022/05/13 12:28:03;;;;;;;6.77;4.17;;;;;;;;;;5052924;28;20406;-68
2022/05/13 12:30:31;;;;;;;6.40;4.27;;;;;;;;;;5035298;28;20759;-66
2022/05/13 12:32:58;;;;;;;5.07;4.00;;;;;;;;;;5053130;28;20406;-67
2022/05/13 12:38:23;;;;;;;5.33;3.83;;;;;;;;;;5053370;28;20447;-66
2022/05/13 12:41:16;;;;;;;4.00;3.60;;;;;;;;;;5053925;28;20461;-67
2022/05/13 12:43:47;;;;;;;4.53;3.80;;;;;;;;;;5054834;28;20421;-67
2022/05/13 12:46:18;;;;;;;3.83;3.47;;;;;;;;;;5054749;28;20405;-67
2022/05/13 12:48:56;;;;;;;3.67;3.37;;;;;;;;;;5036798;28;20418;-68
2022/05/13 12:51:22;;;;;;;5.73;3.63;;;;;;;;;;5054596;28;20410;-67
2022/05/13 12:53:48;;;;;;;5.23;3.77;;;;;;;;;;5054668;28;20463;-67
2022/05/13 12:56:23;;;;;;;6.30;3.57;;;;;;;;;;5054477;28;20806;-68
2022/05/13 12:59:16;;;;;;;9.33;5.00;;;;;;;;;;5054458;28;20508;-68
2022/05/13 13:01:46;;;;;;;4.67;3.60;;;;;;;;;;5006566;28;20441;-68
2022/05/13 13:04:14;;;;;;;5.70;3.40;;;;;;;;;;5054529;28;20405;-67
2022/05/13 13:06:45;;;;;;;4.07;3.63;;;;;;;;;;5054181;28;20413;-67
2022/05/13 13:09:16;;;;;;;6.17;3.77;;;;;;;;;;5036346;28;20430;-66
2022/05/13 13:12:17;;;;;;;4.33;3.47;;;;;;;;;;5054382;28;20428;-68
2022/05/13 13:14:52;;;;;;;3.93;3.63;;;;;;;;;;4973420;28;21058;-67
2022/05/13 13:17:37;;;;;;;4.77;3.40;;;;;;;;;;5042828;28;20452;-66
2022/05/13 13:20:05;;;;;;;4.73;3.40;;;;;;;;;;5053738;28;20480;-65
2022/05/13 13:22:38;;;;;;;3.90;3.60;;;;;;;;;;5054102;28;20413;-65
2022/05/13 13:25:27;;;;;;;4.27;3.60;;;;;;;;;;5053843;28;20497;-67
2022/05/13 13:27:58;;;;;;;3.90;3.50;;;;;;;;;;5043649;28;20416;-67
2022/05/13 13:30:25;;;;;;;5.63;2.90;;;;;;;;;;5054146;28;20405;-64
2022/05/13 13:32:51;;;;;;;4.10;2.70;;;;;;;;;;5054057;28;20393;-67
2022/05/13 13:35:27;;;;;;;3.23;3.03;;;;;;;;;;5053809;28;20468;-64
2022/05/13 13:37:54;;;;;;;4.37;3.67;;;;;;;;;;5053959;28;20423;-65
2022/05/13 13:40:21;;;;;;;4.20;3.13;;;;;;;;;;5053731;28;20468;-65
2022/05/13 13:42:47;;;;;;;5.90;4.20;;;;;;;;;;5053738;28;20476;-66
2022/05/13 13:45:16;;;;;;;10.30;2.97;;;;;;;;;;5053500;28;20410;-67
2022/05/13 13:47:47;;;;;;;3.87;3.57;;;;;;;;;;5053505;28;20393;-65
2022/05/13 13:50:16;;;;;;;3.40;3.10;;;;;;;;;;5053606;28;20401;-65
2022/05/13 13:52:42;;;;;;;5.63;3.13;;;;;;;;;;5035638;28;20860;-66
2022/05/13 13:55:19;;;;;;;4.30;3.23;;;;;;;;;;5053522;28;20491;-65
2022/05/13 13:57:48;;;;;;;4.90;2.83;;;;;;;;;;5053422;28;20467;-66
2022/05/13 14:00:20;;;;;;;4.03;2.60;;;;;;;;;;5053315;28;20500;-68
2022/05/13 14:02:51;;;;;;;4.40;3.07;;;;;;;;;;5053383;28;20760;-68
2022/05/13 14:05:29;;;;;;;5.50;2.90;;;;;;;;;;5053481;28;20401;-67
2022/05/13 14:07:55;;;;;;;4.70;3.13;;;;;;;;;;5053114;28;21013;-66
2022/05/13 14:10:26;;;;;;;3.50;3.20;;;;;;;;;;5053467;28;20421;-69
2022/05/13 14:12:52;;;;;;;4.23;2.90;;;;;;;;;;5053387;28;20418;-66
2022/05/13 14:15:21;;;;;;;5.53;2.67;;;;;;;;;;5053176;28;20421;-71
2022/05/13 14:17:56;;;;;;;4.70;2.70;;;;;;;;;;5053169;28;20421;-67
2022/05/13 14:20:29;;;;;;;4.30;2.80;;;;;;;;;;5053200;28;20461;-66
2022/05/13 14:22:55;;;;;;;5.70;3.23;;;;;;;;;;5053298;28;20398;-66
2022/05/13 14:25:21;;;;;;;4.10;2.70;;;;;;;;;;5053021;28;20437;-67
2022/05/13 14:27:48;;;;;;;2.70;2.50;;;;;;;;;;5053033;28;20497;-65
2022/05/13 14:30:14;;;;;;;2.90;2.47;;;;;;;;;;5052327;28;20489;-64
2022/05/13 14:32:47;;;;;;;4.10;3.50;;;;;;;;;;5053089;28;20416;-65
2022/05/13 14:35:19;;;;;;;3.27;2.97;;;;;;;;;;5053014;28;20409;-65
2022/05/13 14:37:53;;;;;;;2.80;2.60;;;;;;;;;;5053058;28;20448;-65
2022/05/13 14:40:20;;;;;;;3.50;2.43;;;;;;;;;;5052911;28;20469;-65
2022/05/13 14:42:49;;;;;;;3.37;2.50;;;;;;;;;;5052960;28;20479;-64
2022/05/13 14:45:18;;;;;;;2.30;2.10;;;;;;;;;;5052872;28;20405;-64
2022/05/13 14:47:45;;;;;;;3.90;2.27;;;;;;;;;;5052946;28;20405;-64
2022/05/13 14:50:11;;;;;;;4.23;2.40;;;;;;;;;;5052989;28;20397;-66
2022/05/13 14:52:45;;;;;;;3.33;2.60;;;;;;;;;;5052968;28;20460;-65
2022/05/13 14:55:28;;;;;;;2.47;2.23;;;;;;;;;;5052831;28;20924;-69
2022/05/13 14:57:55;;;;;;;2.70;2.10;;;;;;;;;;5052944;28;20419;-67
2022/05/13 15:00:23;;;;;;;2.73;2.50;;;;;;;;;;5052752;28;20477;-65
2022/05/13 15:02:54;;;;;;;2.83;2.50;;;;;;;;;;5052808;28;20405;-64
2022/05/13 15:05:29;;;;;;;2.67;2.47;;;;;;;;;;5052648;28;20405;-65
2022/05/13 15:07:56;;;;;;;4.40;2.50;;;;;;;;;;5052501;28;20974;-66
2022/05/13 15:10:24;;;;;;;4.50;2.50;;;;;;;;;;5052754;28;20405;-65
2022/05/13 15:12:52;;;;;;;3.90;2.87;;;;;;;;;;5052684;28;20431;-65
2022/05/13 15:15:18;;;;;;;4.30;2.90;;;;;;;;;;5052687;28;20412;-65
2022/05/13 15:17:49;;;;;;;2.80;2.47;;;;;;;;;;5052747;28;20405;-64
2022/05/13 15:20:16;;;;;;;4.67;3.20;;;;;;;;;;5052618;28;20892;-65
2022/05/13 15:22:42;;;;;;;6.10;2.20;;;;;;;;;;5052694;28;20483;-65